Time;durP1;ratioP1;P1;durP2;ratioP2;P2;SDS_P1;SDS_P2;PMS_P1;PMS_P2;Temp;Humidity;BMP_temperature;BMP_pressure;BME280_temperature;BME280_humidity;BME280_pressure;Samples;Min_cycle;Max_cycle;Signal;HPM_P1;HPM_P2
2023/11/06 00:01:21;;;;;;;;;;;;;;;28.92;70.75;101013.91;5105218;27;66074;-39
2023/11/06 00:03:50;;;;;;;;;;;;;;;28.98;71.11;101024.94;5105020;27;70313;-39
2023/11/06 00:06:20;;;;;;;;;;;;;;;29.01;70.64;101024.53;5097383;27;65906;-39
2023/11/06 00:08:50;;;;;;;;;;;;;;;29.03;71.89;101026.03;5105316;27;69846;-38
2023/11/06 00:11:20;;;;;;;;;;;;;;;29.05;71.74;101021.22;5104588;27;67044;-38
2023/11/06 00:13:50;;;;;;;;;;;;;;;29.10;71.80;101026.03;5104948;27;70720;-39
2023/11/06 00:16:20;;;;;;;;;;;;;;;29.12;71.53;101024.78;5079288;28;65468;-39
2023/11/06 00:18:56;;;;;;;;;;;;;;;29.13;71.89;101018.34;5100763;27;70742;-39
2023/11/06 00:21:26;;;;;;;;;;;;;;;29.16;72.60;101019.81;5105314;27;66677;-40
2023/11/06 00:23:56;;;;;;;;;;;;;;;29.17;73.25;101018.78;5103610;27;70765;-39
2023/11/06 00:26:26;;;;;;;;;;;;;;;29.18;72.95;101020.44;5102148;27;66844;-39
2023/11/06 00:28:56;;;;;;;;;;;;;;;29.21;73.12;101028.13;5099963;27;69580;-40
2023/11/06 00:31:26;;;;;;;;;;;;;;;29.24;73.03;101033.13;5081418;27;66464;-39
2023/11/06 00:33:56;;;;;;;;;;;;;;;29.26;73.24;101041.84;5097903;27;69783;-39
2023/11/06 00:36:26;;;;;;;;;;;;;;;29.28;73.38;101047.03;5101961;27;66720;-38
2023/11/06 00:38:56;;;;;;;;;;;;;;;29.29;74.56;101054.94;5080846;27;70536;-39
2023/11/06 00:41:26;;;;;;;;;;;;;;;29.32;74.27;101051.84;5100972;27;66727;-38
2023/11/06 00:43:55;;;;;;;;;;;;;;;29.33;74.59;101041.84;5083970;27;70507;-38
2023/11/06 00:46:25;;;;;;;;;;;;;;;29.34;74.35;101055.16;5079060;27;67243;-38
2023/11/06 00:48:55;;;;;;;;;;;;;;;29.36;74.63;101047.69;5077546;27;70050;-38
2023/11/06 00:51:25;;;;;;;;;;;;;;;29.37;75.01;101054.75;5098096;27;66945;-38
2023/11/06 00:53:55;;;;;;;;;;;;;;;29.37;74.76;101062.88;5082804;27;70866;-38
2023/11/06 00:56:24;;;;;;;;;;;;;;;29.37;75.23;101060.16;5098465;27;66765;-38
2023/11/06 00:58:55;;;;;;;;;;;;;;;29.39;75.65;101052.69;5081573;27;69850;-39
2023/11/06 01:01:26;;;;;;;;;;;;;;;29.39;73.82;101049.13;5081798;27;66381;-40
2023/11/06 01:03:57;;;;;;;;;;;;;;;29.39;72.15;101052.69;5080414;27;69517;-40
2023/11/06 01:06:27;;;;;;;;;;;;;;;29.42;70.60;101064.09;5090935;27;64776;-38
2023/11/06 01:08:57;;;;;;;;;;;;;;;29.45;69.83;101060.97;5098960;27;69381;-38
2023/11/06 01:11:27;;;;;;;;;;;;;;;29.46;69.41;101059.97;5098540;27;66172;-39
2023/11/06 01:13:57;;;;;;;;;;;;;;;29.49;68.90;101067.66;5078732;27;69337;-39
2023/11/06 01:16:28;;;;;;;;;;;;;;;29.51;67.97;101065.59;5093048;27;66644;-38
2023/11/06 01:18:59;;;;;;;;;;;;;;;29.53;68.12;101068.91;5100262;27;70032;-38
2023/11/06 01:21:28;;;;;;;;;;;;;;;29.54;67.85;101067.88;5101545;27;66302;-40
2023/11/06 01:23:59;;;;;;;;;;;;;;;29.57;67.38;101072.88;5096105;27;70664;-40
2023/11/06 01:26:28;;;;;;;;;;;;;;;29.58;67.10;101074.50;5100360;27;65822;-39
2023/11/06 01:28:58;;;;;;;;;;;;;;;29.60;67.58;101075.16;5101641;27;70042;-39
2023/11/06 01:31:29;;;;;;;;;;;;;;;29.61;67.20;101066.84;5100503;27;66662;-39
2023/11/06 01:33:58;;;;;;;;;;;;;;;29.64;66.67;101068.31;5100983;27;69804;-38
2023/11/06 01:36:28;;;;;;;;;;;;;;;29.66;67.02;101073.53;5101464;27;66068;-39
2023/11/06 01:38:57;;;;;;;;;;;;;;;29.69;67.02;101075.81;5101267;27;70571;-39
2023/11/06 01:41:27;;;;;;;;;;;;;;;29.70;67.01;101078.31;5086123;27;66921;-39
2023/11/06 01:43:57;;;;;;;;;;;;;;;29.71;66.40;101082.66;5101164;27;70428;-39
2023/11/06 01:46:27;;;;;;;;;;;;;;;29.72;66.67;101084.31;5078958;27;66300;-40
2023/11/06 01:48:57;;;;;;;;;;;;;;;29.73;66.61;101086.00;5099291;27;70192;-39
2023/11/06 01:51:29;;;;;;;;;;;;;;;29.75;66.34;101083.91;5101027;27;66847;-40
2023/11/06 01:54:00;;;;;;;;;;;;;;;29.76;66.44;101085.59;5097643;27;70738;-41
2023/11/06 01:56:33;;;;;;;;;;;;;;;29.78;66.63;101083.53;5102844;27;66741;-40
2023/11/06 01:59:04;;;;;;;;;;;;;;;29.80;66.11;101076.00;5099181;27;69177;-38
2023/11/06 02:01:35;;;;;;;;;;;;;;;29.83;66.06;101080.16;5092555;27;66127;-39
2023/11/06 02:04:10;;;;;;;;;;;;;;;29.85;66.29;101083.50;5098119;27;69635;-38
2023/11/06 02:06:41;;;;;;;;;;;;;;;29.87;66.29;101075.19;5097725;27;66536;-39
2023/11/06 02:09:11;;;;;;;;;;;;;;;29.89;66.24;101083.91;5096844;27;70647;-39
2023/11/06 02:11:41;;;;;;;;;;;;;;;29.92;66.41;101080.78;5099552;27;66442;-39
2023/11/06 02:14:10;;;;;;;;;;;;;;;29.93;65.93;101077.88;5070916;27;70517;-38
2023/11/06 02:16:41;;;;;;;;;;;;;;;29.95;66.18;101072.25;5097319;27;66915;-39
2023/11/06 02:19:11;;;;;;;;;;;;;;;29.97;66.22;101081.81;5098328;27;69768;-38
2023/11/06 02:21:40;;;;;;;;;;;;;;;29.99;66.02;101078.91;5098995;27;66889;-39
2023/11/06 02:24:24;;;;;;;;;;;;;;;30.02;66.05;101089.31;5096356;27;69568;-39
2023/11/06 02:26:56;;;;;;;;;;;;;;;30.03;66.20;101085.56;5096520;27;66925;-38
2023/11/06 02:29:26;;;;;;;;;;;;;;;30.05;65.98;101088.91;5071748;27;70288;-39
2023/11/06 02:31:59;;;;;;;;;;;;;;;30.08;66.12;101083.06;5078125;27;58887;-39
2023/11/06 02:34:29;;;;;;;;;;;;;;;30.01;65.67;101058.75;5099584;27;70522;-40
2023/11/06 02:36:59;;;;;;;;;;;;;;;30.12;66.15;101078.09;5078208;27;66362;-39
2023/11/06 02:39:29;;;;;;;;;;;;;;;30.13;65.91;101069.75;5099865;27;70484;-39
2023/11/06 02:41:58;;;;;;;;;;;;;;;30.16;65.67;101073.91;5082913;27;67116;-38
2023/11/06 02:44:29;;;;;;;;;;;;;;;30.18;65.87;101072.66;5096344;27;70527;-39
2023/11/06 02:46:58;;;;;;;;;;;;;;;30.21;65.66;101072.22;5099576;27;66134;-39
2023/11/06 02:49:28;;;;;;;;;;;;;;;30.22;65.49;101068.50;5100954;27;70055;-38
2023/11/06 02:51:58;;;;;;;;;;;;;;;30.25;65.96;101062.66;5064084;27;66439;-40
2023/11/06 02:54:28;;;;;;;;;;;;;;;30.28;65.80;101064.97;5099314;27;70313;-38
2023/11/06 02:56:57;;;;;;;;;;;;;;;30.30;65.81;101063.91;5099865;27;66630;-38
2023/11/06 02:59:27;;;;;;;;;;;;;;;30.33;65.22;101060.78;5078496;27;70280;-38
2023/11/06 03:01:57;;;;;;;;;;;;;;;30.35;65.31;101056.00;5078552;27;66985;-39
2023/11/06 03:04:27;;;;;;;;;;;;;;;30.37;65.61;101064.72;5069187;27;70341;-40
2023/11/06 03:06:57;;;;;;;;;;;;;;;30.38;65.13;101059.09;5081199;27;66663;-49
2023/11/06 03:09:27;;;;;;;;;;;;;;;30.42;65.34;101045.97;5087836;27;69924;-42
2023/11/06 03:11:57;;;;;;;;;;;;;;;30.44;65.18;101038.47;5100798;27;66027;-39
2023/11/06 03:14:27;;;;;;;;;;;;;;;30.45;65.14;101034.72;5102143;27;69779;-40
2023/11/06 03:16:57;;;;;;;;;;;;;;;30.47;65.37;101032.63;5086299;27;66903;-41
2023/11/06 03:19:28;;;;;;;;;;;;;;;30.49;64.98;101030.53;5092485;27;70366;-38
2023/11/06 03:21:58;;;;;;;;;;;;;;;30.51;65.16;101031.16;5102489;27;66711;-39
2023/11/06 03:24:28;;;;;;;;;;;;;;;30.44;64.84;101012.22;5087032;27;69707;-48
2023/11/06 03:26:58;;;;;;;;;;;;;;;30.55;65.11;101026.97;5102968;27;65924;-38
2023/11/06 03:29:28;;;;;;;;;;;;;;;30.57;65.37;101018.66;5084510;27;70017;-40
2023/11/06 03:31:58;;;;;;;;;;;;;;;30.59;65.34;101020.09;5105703;27;67027;-39
2023/11/06 03:34:28;;;;;;;;;;;;;;;30.61;65.29;101011.75;5105226;27;70081;-39
2023/11/06 03:36:58;;;;;;;;;;;;;;;30.63;65.01;101015.06;5102152;27;67583;-40
2023/11/06 03:39:29;;;;;;;;;;;;;;;30.64;64.82;101012.13;5103566;27;69688;-39
2023/11/06 03:41:58;;;;;;;;;;;;;;;30.44;64.83;100968.09;5085298;27;66786;-39
2023/11/06 03:44:28;;;;;;;;;;;;;;;30.68;64.73;100996.31;5102675;27;70603;-39
2023/11/06 03:46:58;;;;;;;;;;;;;;;30.69;64.75;100996.06;5055570;27;66112;-39
2023/11/06 03:49:28;;;;;;;;;;;;;;;30.71;64.69;100985.88;5103341;27;70693;-39
2023/11/06 03:51:58;;;;;;;;;;;;;;;30.72;65.27;100982.09;5102814;27;66238;-39
2023/11/06 03:54:27;;;;;;;;;;;;;;;30.75;64.80;100977.31;5102343;27;70109;-39
2023/11/06 03:56:57;;;;;;;;;;;;;;;30.76;64.63;100973.53;5103505;27;65685;-39
2023/11/06 03:59:27;;;;;;;;;;;;;;;30.79;64.62;100973.13;5101767;27;70499;-39
2023/11/06 04:01:57;;;;;;;;;;;;;;;30.81;65.16;100981.88;5103859;27;66717;-39
2023/11/06 04:04:26;;;;;;;;;;;;;;;30.82;64.59;100970.84;5085579;27;70305;-40
2023/11/06 04:06:56;;;;;;;;;;;;;;;30.84;64.91;100978.72;5102364;27;67020;-38
2023/11/06 04:09:26;;;;;;;;;;;;;;;30.85;64.85;100975.81;5098437;27;70740;-38
2023/11/06 04:11:56;;;;;;;;;;;;;;;30.88;64.53;100966.44;5097680;27;65722;-39
2023/11/06 04:14:26;;;;;;;;;;;;;;;30.89;64.37;100957.25;5100972;27;69783;-39
2023/11/06 04:16:56;;;;;;;;;;;;;;;30.91;64.84;100958.69;5102535;27;67100;-40
2023/11/06 04:19:26;;;;;;;;;;;;;;;30.92;64.67;100954.94;5102609;27;70117;-39
2023/11/06 04:21:56;;;;;;;;;;;;;;;30.94;64.41;100958.25;5092140;27;67077;-39
2023/11/06 04:24:27;;;;;;;;;;;;;;;30.96;64.71;100955.34;5101183;27;70547;-38
2023/11/06 04:26:57;;;;;;;;;;;;;;;30.97;64.43;100956.97;5101071;27;65871;-40
2023/11/06 04:29:26;;;;;;;;;;;;;;;30.98;64.82;100947.81;5063893;27;70288;-41
2023/11/06 04:31:56;;;;;;;;;;;;;;;31.01;64.25;100941.09;5098391;27;66936;-38
2023/11/06 04:34:26;;;;;;;;;;;;;;;31.03;64.17;100939.03;5100868;27;70489;-40
2023/11/06 04:36:56;;;;;;;;;;;;;;;31.04;64.32;100944.22;5101292;27;66957;-39
2023/11/06 04:39:25;;;;;;;;;;;;;;;31.05;64.37;100932.34;5101961;27;69880;-39
2023/11/06 04:41:55;;;;;;;;;;;;;;;31.07;64.49;100924.00;5102784;27;66826;-39
2023/11/06 04:44:25;;;;;;;;;;;;;;;31.09;64.17;100922.72;5101250;27;70672;-39
2023/11/06 04:46:54;;;;;;;;;;;;;;;31.10;64.38;100924.38;5101468;27;66443;-39
2023/11/06 04:49:25;;;;;;;;;;;;;;;31.12;64.16;100911.44;5100991;27;70386;-38
2023/11/06 04:51:54;;;;;;;;;;;;;;;31.13;64.06;100913.09;5101180;27;67002;-39
2023/11/06 04:54:24;;;;;;;;;;;;;;;31.14;64.24;100909.31;5103645;27;70950;-39
2023/11/06 04:56:54;;;;;;;;;;;;;;;31.17;64.07;100908.91;5103402;27;65550;-38
2023/11/06 04:59:24;;;;;;;;;;;;;;;31.21;64.09;100905.75;5102006;27;70026;-40
2023/11/06 05:01:53;;;;;;;;;;;;;;;31.23;63.96;100900.91;5102907;27;66229;-39
2023/11/06 05:04:23;;;;;;;;;;;;;;;31.25;63.95;100896.13;5103860;27;70726;-40
2023/11/06 05:06:55;;;;;;;;;;;;;;;31.27;63.93;100888.59;5104386;27;66873;-40
2023/11/06 05:09:25;;;;;;;;;;;;;;;31.29;63.97;100883.78;5101838;27;69288;-38
2023/11/06 05:11:54;;;;;;;;;;;;;;;31.31;63.75;100878.97;5103281;27;66235;-39
2023/11/06 05:14:24;;;;;;;;;;;;;;;31.34;63.81;100875.78;5102385;27;69833;-39
2023/11/06 05:16:54;;;;;;;;;;;;;;;31.35;63.56;100872.06;5104085;27;66147;-39
2023/11/06 05:19:24;;;;;;;;;;;;;;;31.37;63.61;100872.66;5102814;27;69433;-39
2023/11/06 05:21:54;;;;;;;;;;;;;;;31.38;63.48;100872.44;5101948;27;66079;-39
2023/11/06 05:24:24;;;;;;;;;;;;;;;31.41;63.41;100864.94;5102600;27;69654;-39
2023/11/06 05:26:54;;;;;;;;;;;;;;;31.43;63.52;100858.25;5102332;27;66863;-38
2023/11/06 05:29:24;;;;;;;;;;;;;;;31.43;63.05;100855.53;5095150;27;70733;-38
2023/11/06 05:31:54;;;;;;;;;;;;;;;31.46;63.42;100852.38;5101401;27;66422;-39
2023/11/06 05:34:23;;;;;;;;;;;;;;;31.26;63.57;100808.31;5101975;27;69839;-40
2023/11/06 05:36:53;;;;;;;;;;;;;;;31.50;63.44;100847.31;5101557;27;67248;-39
2023/11/06 05:39:23;;;;;;;;;;;;;;;31.51;63.55;100844.38;5095817;27;70249;-38
2023/11/06 05:41:52;;;;;;;;;;;;;;;31.53;63.13;100839.53;5101459;27;66392;-38
2023/11/06 05:44:22;;;;;;;;;;;;;;;31.55;63.01;100833.91;5100776;27;70094;-38
2023/11/06 05:46:52;;;;;;;;;;;;;;;31.56;63.23;100841.81;5101455;27;66139;-39
2023/11/06 05:49:22;;;;;;;;;;;;;;;31.59;62.84;100835.09;5101787;27;70289;-39
2023/11/06 05:51:52;;;;;;;;;;;;;;;31.60;62.97;100836.78;5100742;27;66539;-40
2023/11/06 05:54:23;;;;;;;;;;;;;;;31.61;62.86;100836.53;5101820;27;71509;-39
2023/11/06 05:56:54;;;;;;;;;;;;;;;31.64;62.91;100820.88;5100942;27;67171;-38
2023/11/06 05:59:26;;;;;;;;;;;;;;;31.65;62.88;100814.38;5101923;27;70798;-38
2023/11/06 06:01:56;;;;;;;;;;;;;;;31.67;62.83;100815.81;5097466;27;66043;-40
2023/11/06 06:04:26;;;;;;;;;;;;;;;31.69;62.76;100808.28;5099790;27;70187;-40
2023/11/06 06:06:57;;;;;;;;;;;;;;;31.72;62.50;100807.00;5067041;27;66114;-39
2023/11/06 06:09:27;;;;;;;;;;;;;;;31.73;62.92;100792.38;5102166;27;69777;-40
2023/11/06 06:11:57;;;;;;;;;;;;;;;31.75;62.51;100793.00;5099998;27;66963;-38
2023/11/06 06:14:27;;;;;;;;;;;;;;;31.77;62.65;100790.88;5101135;27;70576;-39
2023/11/06 06:16:57;;;;;;;;;;;;;;;31.78;62.59;100784.41;5101305;27;66628;-39
2023/11/06 06:19:27;;;;;;;;;;;;;;;31.80;62.58;100783.09;5075309;27;70334;-40
2023/11/06 06:21:57;;;;;;;;;;;;;;;31.83;62.71;100781.81;5101712;27;66073;-40
2023/11/06 06:24:27;;;;;;;;;;;;;;;31.85;62.50;100779.72;5099972;27;69722;-40
2023/11/06 06:26:57;;;;;;;;;;;;;;;31.89;62.39;100770.06;5097179;27;65374;-38
2023/11/06 06:29:27;;;;;;;;;;;;;;;31.92;62.15;100772.34;5101370;27;70702;-39
2023/11/06 06:31:57;;;;;;;;;;;;;;;31.94;62.25;100762.09;5101947;27;66343;-39
2023/11/06 06:34:26;;;;;;;;;;;;;;;31.97;62.13;100756.19;5099666;27;69871;-38
2023/11/06 06:36:57;;;;;;;;;;;;;;;31.99;62.12;100754.09;5101374;27;66798;-39
2023/11/06 06:39:26;;;;;;;;;;;;;;;32.03;62.18;100755.28;5100908;27;70480;-41
2023/11/06 06:41:56;;;;;;;;;;;;;;;32.06;62.10;100753.97;5099942;27;66224;-39
2023/11/06 06:44:26;;;;;;;;;;;;;;;32.10;62.06;100759.78;5101597;27;69355;-40
2023/11/06 06:46:58;;;;;;;;;;;;;;;32.14;62.09;100747.41;5100861;27;67332;-39
2023/11/06 06:49:28;;;;;;;;;;;;;;;32.17;61.73;100741.50;5099672;27;69848;-40
2023/11/06 06:51:58;;;;;;;;;;;;;;;32.21;61.92;100742.72;5082241;27;65760;-39
2023/11/06 06:54:27;;;;;;;;;;;;;;;32.23;61.68;100732.44;5101014;27;68927;-40
2023/11/06 06:56:57;;;;;;;;;;;;;;;32.24;61.65;100725.97;5100157;27;66247;-39
2023/11/06 06:59:27;;;;;;;;;;;;;;;32.26;61.55;100732.81;5100254;27;70333;-39
2023/11/06 07:01:57;;;;;;;;;;;;;;;32.29;61.56;100726.09;5101565;27;65509;-40
2023/11/06 07:04:27;;;;;;;;;;;;;;;32.30;61.55;100721.47;5098820;27;69867;-39
2023/11/06 07:06:57;;;;;;;;;;;;;;;32.32;61.50;100722.91;5100999;27;66327;-40
2023/11/06 07:09:31;;;;;;;;;;;;;;;32.33;61.53;100716.41;5100655;27;69775;-40
2023/11/06 07:12:03;;;;;;;;;;;;;;;32.36;61.37;100715.94;5098479;27;66632;-38
2023/11/06 07:14:33;;;;;;;;;;;;;;;32.39;61.33;100711.94;5081772;27;69959;-39
2023/11/06 07:17:05;;;;;;;;;;;;;;;32.40;61.32;100717.13;5100970;27;66061;-40
2023/11/06 07:19:35;;;;;;;;;;;;;;;32.42;61.07;100704.13;5100684;27;70029;-39
2023/11/06 07:22:06;;;;;;;;;;;;;;;32.44;61.05;100702.00;5100887;27;67278;-39
2023/11/06 07:24:36;;;;;;;;;;;;;;;32.46;60.93;100693.69;5082587;27;70324;-39
2023/11/06 07:27:06;;;;;;;;;;;;;;;32.51;61.19;100706.53;5099962;27;66809;-39
2023/11/06 07:29:36;;;;;;;;;;;;;;;32.52;60.86;100692.72;5100865;27;70712;-39
2023/11/06 07:32:06;;;;;;;;;;;;;;;32.56;60.51;100682.22;5099933;27;67054;-40
2023/11/06 07:34:36;;;;;;;;;;;;;;;32.58;60.96;100675.47;5100634;27;70259;-39
2023/11/06 07:37:06;;;;;;;;;;;;;;;32.61;60.89;100688.59;5099735;27;65319;-39
2023/11/06 07:39:36;;;;;;;;;;;;;;;32.64;60.59;100690.00;5098237;27;70148;-39
2023/11/06 07:42:06;;;;;;;;;;;;;;;32.67;60.58;100684.09;5092770;27;66687;-40
2023/11/06 07:44:36;;;;;;;;;;;;;;;32.70;60.78;100683.63;5098463;27;70560;-39
2023/11/06 07:47:06;;;;;;;;;;;;;;;32.72;60.67;100681.50;5085486;27;66628;-38
2023/11/06 07:49:36;;;;;;;;;;;;;;;32.75;61.10;100681.03;5089511;27;70036;-40
2023/11/06 07:52:09;;;;;;;;;;;;;;;32.79;60.95;100674.06;5100269;27;66717;-40
2023/11/06 07:54:42;;;;;;;;;;;;;;;32.83;60.87;100672.50;5099261;27;70058;-39
2023/11/06 07:57:12;;;;;;;;;;;;;;;32.88;60.84;100678.06;5101737;27;66065;-39
2023/11/06 07:59:42;;;;;;;;;;;;;;;32.91;60.94;100669.44;5085167;27;70447;-39
2023/11/06 08:02:12;;;;;;;;;;;;;;;32.97;60.72;100688.56;5100952;27;67085;-38
2023/11/06 08:04:42;;;;;;;;;;;;;;;32.99;60.67;100665.53;5103631;27;70784;-40
2023/11/06 08:07:13;;;;;;;;;;;;;;;33.04;60.79;100662.09;5103762;27;65545;-39
2023/11/06 08:09:43;;;;;;;;;;;;;;;33.07;60.70;100667.03;5084500;27;69784;-39
2023/11/06 08:12:14;;;;;;;;;;;;;;;33.10;60.60;100661.16;5103859;27;67260;-40
2023/11/06 08:14:44;;;;;;;;;;;;;;;33.12;60.62;100665.25;5104138;27;69691;-39
2023/11/06 08:17:14;;;;;;;;;;;;;;;33.13;60.76;100666.94;5104304;27;66232;-39
2023/11/06 08:19:44;;;;;;;;;;;;;;;33.17;60.69;100659.09;5105206;27;69424;-40
2023/11/06 08:22:15;;;;;;;;;;;;;;;33.18;60.62;100674.34;5104378;27;66244;-40
2023/11/06 08:24:44;;;;;;;;;;;;;;;33.20;60.87;100688.53;5102464;27;70015;-39
2023/11/06 08:27:14;;;;;;;;;;;;;;;33.22;60.76;100680.97;5102378;27;66805;-40
2023/11/06 08:29:45;;;;;;;;;;;;;;;33.22;60.66;100658.38;5103213;27;69686;-39
2023/11/06 08:32:15;;;;;;;;;;;;;;;33.22;60.72;100659.22;5102322;27;66552;-39
2023/11/06 08:34:45;;;;;;;;;;;;;;;33.22;60.71;100659.22;5103176;27;70816;-38
2023/11/06 08:37:15;;;;;;;;;;;;;;;33.23;60.70;100655.41;5091689;27;65440;-38
2023/11/06 08:39:45;;;;;;;;;;;;;;;33.22;60.83;100648.34;5083600;27;70209;-39
2023/11/06 08:42:15;;;;;;;;;;;;;;;33.23;60.82;100654.59;5103289;27;65983;-41
2023/11/06 08:44:46;;;;;;;;;;;;;;;33.23;60.67;100652.69;5099474;27;70509;-39
2023/11/06 08:47:16;;;;;;;;;;;;;;;33.21;61.03;100657.56;5102366;27;66061;-39
2023/11/06 08:49:46;;;;;;;;;;;;;;;33.19;60.97;100659.69;5102628;27;69756;-39
2023/11/06 08:52:16;;;;;;;;;;;;;;;33.21;61.11;100654.00;5085417;27;66836;-40
2023/11/06 08:54:45;;;;;;;;;;;;;;;33.20;61.45;100665.94;5102407;27;70574;-40
2023/11/06 08:57:16;;;;;;;;;;;;;;;33.21;61.21;100689.34;5093790;27;65948;-39
2023/11/06 08:59:47;;;;;;;;;;;;;;;33.22;60.98;100678.25;5100904;27;71868;-39
2023/11/06 09:02:18;;;;;;;;;;;;;;;33.21;61.13;100673.88;5101980;27;66210;-39
2023/11/06 09:04:50;;;;;;;;;;;;;;;33.21;61.22;100673.88;5098953;27;70475;-39
2023/11/06 09:07:20;;;;;;;;;;;;;;;33.20;61.32;100679.53;5102500;27;66204;-40
2023/11/06 09:09:50;;;;;;;;;;;;;;;33.21;61.12;100682.03;5081207;27;70701;-38
2023/11/06 09:12:20;;;;;;;;;;;;;;;33.19;61.18;100695.03;5102552;27;65944;-40
2023/11/06 09:14:49;;;;;;;;;;;;;;;33.20;61.13;100704.81;5102574;27;70384;-40
2023/11/06 09:17:19;;;;;;;;;;;;;;;32.78;63.87;100702.28;5100723;27;66101;-40
2023/11/06 09:19:49;;;;;;;;;;;;;;;32.57;65.25;100700.16;5101530;27;70693;-40
2023/11/06 09:22:20;;;;;;;;;;;;;;;32.60;65.49;100716.81;5083014;27;66408;-39
2023/11/06 09:24:50;;;;;;;;;;;;;;;32.84;64.50;100695.88;5102525;27;69211;-39
2023/11/06 09:27:20;;;;;;;;;;;;;;;32.93;64.63;100699.91;5100918;27;65314;-40
2023/11/06 09:29:50;;;;;;;;;;;;;;;32.99;64.70;100708.13;5101521;27;70359;-39
2023/11/06 09:32:21;;;;;;;;;;;;;;;33.02;64.39;100708.53;5100827;27;67046;-39
2023/11/06 09:34:51;;;;;;;;;;;;;;;33.05;64.36;100713.50;5101876;27;69364;-41
2023/11/06 09:37:21;;;;;;;;;;;;;;;33.07;64.62;100721.38;5097880;27;65591;-39
2023/11/06 09:39:51;;;;;;;;;;;;;;;33.07;64.17;100721.38;5101796;27;69266;-41
2023/11/06 09:42:21;;;;;;;;;;;;;;;33.06;64.46;100727.91;5100754;27;67202;-40
2023/11/06 09:44:51;;;;;;;;;;;;;;;33.06;64.04;100730.63;5099896;27;69843;-40
2023/11/06 09:47:21;;;;;;;;;;;;;;;33.04;63.98;100736.31;5101483;27;66162;-40
2023/11/06 09:49:58;;;;;;;;;;;;;;;33.04;64.24;100735.47;5099297;27;70432;-40
2023/11/06 09:52:31;;;;;;;;;;;;;;;33.04;64.11;100735.47;5100193;27;65928;-39
2023/11/06 09:55:02;;;;;;;;;;;;;;;33.03;64.24;100736.53;5101266;27;69682;-40
2023/11/06 09:57:34;;;;;;;;;;;;;;;33.01;64.26;100744.09;5100965;27;66631;-40
2023/11/06 10:00:05;;;;;;;;;;;;;;;32.99;64.26;100751.63;5099356;27;70757;-40
2023/11/06 10:02:35;;;;;;;;;;;;;;;32.99;64.42;100757.06;5100946;27;66078;-40
2023/11/06 10:05:15;;;;;;;;;;;;;;;32.98;64.40;100782.59;5101124;27;70043;-40
2023/11/06 10:07:46;;;;;;;;;;;;;;;32.98;64.50;100779.88;5101526;27;66166;-41
2023/11/06 10:10:16;;;;;;;;;;;;;;;32.96;64.58;100784.69;5101747;27;70701;-40
2023/11/06 10:13:07;;;;;;;;;;;;;;;32.93;64.55;100789.56;5100903;27;66625;-45
2023/11/06 10:15:37;;;;;;;;;;;;;;;32.91;64.64;100805.28;5095495;27;69171;-40
2023/11/06 10:18:14;;;;;;;;;;;;;;;32.89;65.05;100807.38;5099228;27;66965;-40
2023/11/06 10:20:47;;;;;;;;;;;;;;;32.88;65.01;100805.75;5099107;27;69737;-39
2023/11/06 10:23:37;;;;;;;;;;;;;;;32.53;66.60;100808.41;5095979;27;65976;-39
2023/11/06 10:26:11;;;;;;;;;;;;;;;32.27;68.63;100828.63;5097976;27;69648;-39
2023/11/06 10:28:41;;;;;;;;;;;;;;;32.13;69.34;100827.16;5096962;27;66250;-41
2023/11/06 10:31:11;;;;;;;;;;;;;;;32.02;69.59;100835.03;5081237;27;70744;-39
2023/11/06 10:33:41;;;;;;;;;;;;;;;31.95;70.61;100826.13;5099844;27;66199;-39
2023/11/06 10:36:17;;;;;;;;;;;;;;;31.94;71.61;100827.19;5098452;27;69931;-39
2023/11/06 10:38:47;;;;;;;;;;;;;;;31.93;72.06;100830.13;5100310;27;66545;-39
2023/11/06 10:41:27;;;;;;;;;;;;;;;31.98;71.75;100828.41;5096076;27;70357;-39
2023/11/06 10:44:01;;;;;;;;;;;;;;;32.22;70.15;100839.34;5100451;27;66767;-39
2023/11/06 10:46:31;;;;;;;;;;;;;;;32.35;69.59;100847.31;5100691;27;70713;-39
2023/11/06 10:49:14;;;;;;;;;;;;;;;32.42;68.96;100839.88;5100621;27;65763;-39
2023/11/06 10:51:46;;;;;;;;;;;;;;;32.51;68.58;100850.44;5082016;27;68840;-40
2023/11/06 10:54:19;;;;;;;;;;;;;;;32.55;68.47;100857.06;5100806;27;66862;-39
2023/11/06 10:56:57;;;;;;;;;;;;;;;32.59;68.34;100882.69;5100310;27;70351;-40
2023/11/06 10:59:29;;;;;;;;;;;;;;;32.60;68.13;100890.63;5100512;27;67087;-41
2023/11/06 11:01:59;;;;;;;;;;;;;;;32.63;67.96;100892.03;5098527;27;70366;-40
2023/11/06 11:04:30;;;;;;;;;;;;;;;32.63;68.10;100889.34;5081781;27;66055;-40
2023/11/06 11:07:02;;;;;;;;;;;;;;;32.66;67.83;100899.72;5081211;27;70960;-39
2023/11/06 11:09:32;;;;;;;;;;;;;;;32.65;67.90;100898.91;5097050;27;65368;-44
2023/11/06 11:12:04;;;;;;;;;;;;;;;32.65;67.94;100900.75;5099934;27;70014;-39
2023/11/06 11:14:34;;;;;;;;;;;;;;;32.65;68.01;100900.75;5100697;27;66234;-39
2023/11/06 11:17:09;;;;;;;;;;;;;;;32.64;68.18;100913.53;5099452;27;70073;-39
2023/11/06 11:19:41;;;;;;;;;;;;;;;32.64;68.00;100920.84;5101416;27;66573;-39
2023/11/06 11:22:12;;;;;;;;;;;;;;;32.64;68.08;100918.13;5080773;27;69069;-39
2023/11/06 11:24:44;;;;;;;;;;;;;;;32.63;68.31;100921.91;5097869;27;67033;-39
2023/11/06 11:27:16;;;;;;;;;;;;;;;32.62;68.03;100914.81;5097191;27;69172;-39
2023/11/06 11:29:51;;;;;;;;;;;;;;;32.62;68.09;100925.69;5099129;27;66111;-40
2023/11/06 11:32:22;;;;;;;;;;;;;;;32.60;67.95;100922.38;5100617;27;70075;-38
2023/11/06 11:34:56;;;;;;;;;;;;;;;32.59;68.04;100915.28;5104111;27;65629;-39
2023/11/06 11:37:29;;;;;;;;;;;;;;;32.58;68.08;100914.47;5103698;27;70332;-38
2023/11/06 11:40:08;;;;;;;;;;;;;;;32.57;67.82;100917.38;5104235;27;66823;-38
2023/11/06 11:42:38;;;;;;;;;;;;;;;32.56;68.09;100921.19;5102267;27;70324;-39
2023/11/06 11:45:08;;;;;;;;;;;;;;;32.55;67.58;100924.97;5104190;27;66585;-39
2023/11/06 11:47:47;;;;;;;;;;;;;;;32.53;67.55;100932.50;5103902;27;69909;-39
2023/11/06 11:50:39;;;;;;;;;;;;;;;32.51;67.39;100931.91;5102337;27;66390;-40
2023/11/06 11:53:09;;;;;;;;;;;;;;;32.50;67.49;100947.38;5100198;27;70561;-38
2023/11/06 11:55:39;;;;;;;;;;;;;;;32.47;67.73;100951.38;5104275;27;67260;-39
2023/11/06 11:58:14;;;;;;;;;;;;;;;32.46;67.92;100955.16;5104157;27;70241;-40
2023/11/06 12:00:44;;;;;;;;;;;;;;;32.43;67.68;100955.56;5084439;27;67046;-40
2023/11/06 12:03:14;;;;;;;;;;;;;;;32.42;67.57;100964.75;5084564;27;69929;-39
2023/11/06 12:05:54;;;;;;;;;;;;;;;32.41;67.93;100968.53;5101390;27;66508;-40
2023/11/06 12:08:26;;;;;;;;;;;;;;;32.40;67.77;100977.75;5101799;27;69216;-39
2023/11/06 12:11:06;;;;;;;;;;;;;;;32.38;67.77;100971.72;5103677;27;66263;-39
2023/11/06 12:13:37;;;;;;;;;;;;;;;32.36;67.98;100971.13;5100107;27;69924;-39
2023/11/06 12:16:07;;;;;;;;;;;;;;;32.35;67.68;100974.91;5082262;27;66625;-39
2023/11/06 12:18:42;;;;;;;;;;;;;;;32.33;68.19;100977.00;5103162;27;69871;-39
2023/11/06 12:21:14;;;;;;;;;;;;;;;32.34;67.94;100983.25;5102357;27;66584;-39
2023/11/06 12:23:43;;;;;;;;;;;;;;;32.32;67.99;100990.78;5102396;27;70049;-39
2023/11/06 12:26:17;;;;;;;;;;;;;;;32.30;68.05;100988.31;5102675;27;65510;-40
2023/11/06 12:28:47;;;;;;;;;;;;;;;32.29;68.15;100992.09;5102410;27;70530;-40
2023/11/06 12:31:20;;;;;;;;;;;;;;;32.28;67.96;101001.28;5083719;27;67209;-39
2023/11/06 12:33:50;;;;;;;;;;;;;;;32.27;68.33;100999.63;5095262;27;70665;-39
2023/11/06 12:36:28;;;;;;;;;;;;;;;32.26;68.28;101008.81;5102132;27;66150;-40
2023/11/06 12:39:00;;;;;;;;;;;;;;;32.24;68.35;101022.63;5104389;27;70304;-39
2023/11/06 12:41:30;;;;;;;;;;;;;;;32.24;68.20;101024.53;5084715;27;66648;-40
2023/11/06 12:44:07;;;;;;;;;;;;;;;32.22;68.40;101019.31;5104361;27;69252;-39
2023/11/06 12:46:45;;;;;;;;;;;;;;;32.21;68.47;101028.50;5102486;27;66810;-38
2023/11/06 12:49:49;;;;;;;;;;;;;;;32.19;68.23;101025.19;5103169;27;70606;-39
2023/11/06 12:52:21;;;;;;;;;;;;;;;32.17;68.32;101023.75;5103487;27;65989;-39
2023/11/06 12:54:51;;;;;;;;;;;;;;;32.16;68.27;101030.25;5103981;27;71213;-39